sensor_id;sensor_type;location;lat;lon;timestamp;P1;durP1;ratioP1;P2;durP2;ratioP2
39032;SDS011;24794;51.982;5.878;2023-04-09T00:00:09;25.52;;;16.15;;
39032;SDS011;24794;51.982;5.878;2023-04-09T00:01:11;25.80;;;17.20;;
39032;SDS011;24794;51.982;5.878;2023-04-09T00:02:12;31.63;;;19.52;;
39032;SDS011;24794;51.982;5.878;2023-04-09T00:03:12;27.48;;;17.13;;
39032;SDS011;24794;51.982;5.878;2023-04-09T00:04:13;28.63;;;17.25;;
39032;SDS011;24794;51.982;5.878;2023-04-09T00:05:14;27.98;;;17.27;;
39032;SDS011;24794;51.982;5.878;2023-04-09T00:06:14;25.88;;;16.83;;
39032;SDS011;24794;51.982;5.878;2023-04-09T00:07:15;27.15;;;16.98;;
39032;SDS011;24794;51.982;5.878;2023-04-09T00:08:15;28.98;;;18.52;;
39032;SDS011;24794;51.982;5.878;2023-04-09T00:09:16;25.48;;;16.23;;
39032;SDS011;24794;51.982;5.878;2023-04-09T00:10:16;24.85;;;16.27;;
39032;SDS011;24794;51.982;5.878;2023-04-09T00:11:17;23.83;;;16.08;;
39032;SDS011;24794;51.982;5.878;2023-04-09T00:12:17;28.52;;;17.83;;
39032;SDS011;24794;51.982;5.878;2023-04-09T00:13:18;24.63;;;15.82;;
39032;SDS011;24794;51.982;5.878;2023-04-09T00:14:19;25.63;;;16.48;;
39032;SDS011;24794;51.982;5.878;2023-04-09T00:15:20;26.50;;;16.15;;
39032;SDS011;24794;51.982;5.878;2023-04-09T00:16:20;25.27;;;15.93;;
39032;SDS011;24794;51.982;5.878;2023-04-09T00:17:21;25.10;;;17.10;;
39032;SDS011;24794;51.982;5.878;2023-04-09T00:18:21;28.17;;;16.70;;
39032;SDS011;24794;51.982;5.878;2023-04-09T00:19:22;26.05;;;16.33;;
39032;SDS011;24794;51.982;5.878;2023-04-09T00:20:22;27.95;;;16.83;;
39032;SDS011;24794;51.982;5.878;2023-04-09T00:21:23;26.63;;;17.63;;
39032;SDS011;24794;51.982;5.878;2023-04-09T00:22:23;32.35;;;19.42;;
39032;SDS011;24794;51.982;5.878;2023-04-09T00:23:24;25.70;;;16.52;;
39032;SDS011;24794;51.982;5.878;2023-04-09T00:24:25;27.60;;;16.83;;
39032;SDS011;24794;51.982;5.878;2023-04-09T00:25:25;28.60;;;16.35;;
39032;SDS011;24794;51.982;5.878;2023-04-09T00:26:27;27.02;;;16.92;;
39032;SDS011;24794;51.982;5.878;2023-04-09T00:27:28;24.55;;;16.25;;
39032;SDS011;24794;51.982;5.878;2023-04-09T00:28:28;26.40;;;16.95;;
39032;SDS011;24794;51.982;5.878;2023-04-09T00:29:29;28.20;;;17.60;;
39032;SDS011;24794;51.982;5.878;2023-04-09T00:30:30;31.30;;;19.48;;
39032;SDS011;24794;51.982;5.878;2023-04-09T00:31:30;30.55;;;18.73;;
39032;SDS011;24794;51.982;5.878;2023-04-09T00:32:32;30.05;;;17.90;;
39032;SDS011;24794;51.982;5.878;2023-04-09T00:33:32;26.02;;;16.92;;
39032;SDS011;24794;51.982;5.878;2023-04-09T00:34:33;28.17;;;17.77;;
39032;SDS011;24794;51.982;5.878;2023-04-09T00:35:33;29.48;;;16.60;;
39032;SDS011;24794;51.982;5.878;2023-04-09T00:36:34;28.85;;;18.98;;
39032;SDS011;24794;51.982;5.878;2023-04-09T00:37:35;29.02;;;16.88;;
39032;SDS011;24794;51.982;5.878;2023-04-09T00:38:35;27.25;;;17.17;;
39032;SDS011;24794;51.982;5.878;2023-04-09T00:39:36;30.60;;;18.63;;
39032;SDS011;24794;51.982;5.878;2023-04-09T00:40:36;25.73;;;16.73;;
39032;SDS011;24794;51.982;5.878;2023-04-09T00:41:37;28.27;;;17.60;;
39032;SDS011;24794;51.982;5.878;2023-04-09T00:42:37;28.40;;;17.20;;
39032;SDS011;24794;51.982;5.878;2023-04-09T00:43:38;27.95;;;17.58;;
39032;SDS011;24794;51.982;5.878;2023-04-09T00:44:39;31.35;;;18.88;;
39032;SDS011;24794;51.982;5.878;2023-04-09T00:45:39;28.35;;;18.30;;
39032;SDS011;24794;51.982;5.878;2023-04-09T00:46:40;28.60;;;18.25;;
39032;SDS011;24794;51.982;5.878;2023-04-09T00:47:40;29.98;;;18.38;;
39032;SDS011;24794;51.982;5.878;2023-04-09T00:48:44;31.73;;;20.10;;
39032;SDS011;24794;51.982;5.878;2023-04-09T00:49:45;31.30;;;19.02;;
39032;SDS011;24794;51.982;5.878;2023-04-09T00:50:45;29.40;;;18.23;;
39032;SDS011;24794;51.982;5.878;2023-04-09T00:51:46;29.08;;;17.98;;
39032;SDS011;24794;51.982;5.878;2023-04-09T00:52:47;29.20;;;17.80;;
39032;SDS011;24794;51.982;5.878;2023-04-09T00:53:48;30.42;;;18.83;;
39032;SDS011;24794;51.982;5.878;2023-04-09T00:54:49;26.52;;;17.52;;
39032;SDS011;24794;51.982;5.878;2023-04-09T00:55:51;30.10;;;18.80;;
39032;SDS011;24794;51.982;5.878;2023-04-09T00:56:52;29.10;;;18.17;;
39032;SDS011;24794;51.982;5.878;2023-04-09T00:57:55;33.95;;;20.08;;
39032;SDS011;24794;51.982;5.878;2023-04-09T00:58:56;32.38;;;19.77;;
39032;SDS011;24794;51.982;5.878;2023-04-09T00:59:56;28.13;;;18.10;;
39032;SDS011;24794;51.982;5.878;2023-04-09T01:00:57;29.55;;;17.65;;
39032;SDS011;24794;51.982;5.878;2023-04-09T01:01:58;25.45;;;16.83;;
39032;SDS011;24794;51.982;5.878;2023-04-09T01:02:58;30.35;;;17.85;;
39032;SDS011;24794;51.982;5.878;2023-04-09T01:03:59;30.02;;;17.63;;
39032;SDS011;24794;51.982;5.878;2023-04-09T01:05:00;30.73;;;18.33;;
39032;SDS011;24794;51.982;5.878;2023-04-09T01:06:05;32.15;;;19.27;;
39032;SDS011;24794;51.982;5.878;2023-04-09T01:11:36;28.00;;;17.05;;
39032;SDS011;24794;51.982;5.878;2023-04-09T01:15:37;28.17;;;17.77;;
39032;SDS011;24794;51.982;5.878;2023-04-09T01:16:45;27.52;;;17.15;;
39032;SDS011;24794;51.982;5.878;2023-04-09T01:18:06;32.40;;;18.52;;
39032;SDS011;24794;51.982;5.878;2023-04-09T01:20:42;31.25;;;17.50;;
39032;SDS011;24794;51.982;5.878;2023-04-09T01:21:48;26.25;;;16.73;;
39032;SDS011;24794;51.982;5.878;2023-04-09T01:24:18;30.63;;;17.92;;
39032;SDS011;24794;51.982;5.878;2023-04-09T01:26:56;28.70;;;18.80;;
39032;SDS011;24794;51.982;5.878;2023-04-09T01:28:20;28.98;;;18.08;;
39032;SDS011;24794;51.982;5.878;2023-04-09T01:29:24;27.75;;;17.38;;
39032;SDS011;24794;51.982;5.878;2023-04-09T01:30:29;32.03;;;18.25;;
39032;SDS011;24794;51.982;5.878;2023-04-09T01:31:33;32.58;;;19.27;;
39032;SDS011;24794;51.982;5.878;2023-04-09T01:32:36;30.63;;;19.40;;
39032;SDS011;24794;51.982;5.878;2023-04-09T01:33:39;31.75;;;19.73;;
39032;SDS011;24794;51.982;5.878;2023-04-09T01:34:41;29.60;;;18.65;;
39032;SDS011;24794;51.982;5.878;2023-04-09T01:35:45;30.15;;;19.30;;
39032;SDS011;24794;51.982;5.878;2023-04-09T01:36:49;26.83;;;16.48;;
39032;SDS011;24794;51.982;5.878;2023-04-09T01:37:54;33.00;;;20.15;;
39032;SDS011;24794;51.982;5.878;2023-04-09T01:38:56;30.08;;;18.73;;
39032;SDS011;24794;51.982;5.878;2023-04-09T01:39:57;29.63;;;17.20;;
39032;SDS011;24794;51.982;5.878;2023-04-09T01:40:58;25.05;;;16.80;;
39032;SDS011;24794;51.982;5.878;2023-04-09T01:42:00;28.05;;;17.05;;
39032;SDS011;24794;51.982;5.878;2023-04-09T01:43:02;26.00;;;16.50;;
39032;SDS011;24794;51.982;5.878;2023-04-09T01:44:05;26.98;;;16.48;;
39032;SDS011;24794;51.982;5.878;2023-04-09T01:45:07;24.15;;;15.85;;
39032;SDS011;24794;51.982;5.878;2023-04-09T01:46:10;26.17;;;16.63;;
39032;SDS011;24794;51.982;5.878;2023-04-09T01:47:12;26.02;;;15.77;;
39032;SDS011;24794;51.982;5.878;2023-04-09T01:48:13;27.02;;;16.92;;
39032;SDS011;24794;51.982;5.878;2023-04-09T01:49:15;27.23;;;16.35;;
39032;SDS011;24794;51.982;5.878;2023-04-09T01:50:16;28.23;;;17.73;;
39032;SDS011;24794;51.982;5.878;2023-04-09T01:51:17;27.08;;;17.05;;
39032;SDS011;24794;51.982;5.878;2023-04-09T01:52:18;30.35;;;17.98;;
39032;SDS011;24794;51.982;5.878;2023-04-09T01:53:19;28.52;;;17.85;;
39032;SDS011;24794;51.982;5.878;2023-04-09T01:54:20;30.65;;;18.55;;
39032;SDS011;24794;51.982;5.878;2023-04-09T01:55:21;30.13;;;18.08;;
39032;SDS011;24794;51.982;5.878;2023-04-09T01:56:22;27.13;;;16.27;;
39032;SDS011;24794;51.982;5.878;2023-04-09T01:57:22;28.08;;;16.38;;
39032;SDS011;24794;51.982;5.878;2023-04-09T01:58:23;24.67;;;16.05;;
39032;SDS011;24794;51.982;5.878;2023-04-09T01:59:24;26.27;;;16.20;;
39032;SDS011;24794;51.982;5.878;2023-04-09T02:00:26;26.60;;;16.50;;
39032;SDS011;24794;51.982;5.878;2023-04-09T02:01:35;24.73;;;17.45;;
39032;SDS011;24794;51.982;5.878;2023-04-09T02:02:56;28.20;;;17.13;;
39032;SDS011;24794;51.982;5.878;2023-04-09T02:04:09;27.15;;;16.38;;
39032;SDS011;24794;51.982;5.878;2023-04-09T02:05:15;23.50;;;15.38;;
39032;SDS011;24794;51.982;5.878;2023-04-09T02:06:30;27.30;;;16.48;;
39032;SDS011;24794;51.982;5.878;2023-04-09T02:07:39;26.08;;;16.63;;
39032;SDS011;24794;51.982;5.878;2023-04-09T02:08:45;28.75;;;17.10;;
39032;SDS011;24794;51.982;5.878;2023-04-09T02:09:47;24.85;;;16.67;;
39032;SDS011;24794;51.982;5.878;2023-04-09T02:10:50;26.10;;;15.80;;
39032;SDS011;24794;51.982;5.878;2023-04-09T02:11:56;26.02;;;15.38;;
39032;SDS011;24794;51.982;5.878;2023-04-09T02:12:58;28.20;;;16.92;;
39032;SDS011;24794;51.982;5.878;2023-04-09T02:14:00;27.05;;;16.88;;
39032;SDS011;24794;51.982;5.878;2023-04-09T02:15:02;25.77;;;15.98;;
39032;SDS011;24794;51.982;5.878;2023-04-09T02:16:04;23.25;;;15.18;;
39032;SDS011;24794;51.982;5.878;2023-04-09T02:17:07;26.30;;;16.30;;
39032;SDS011;24794;51.982;5.878;2023-04-09T02:18:23;26.60;;;16.67;;
39032;SDS011;24794;51.982;5.878;2023-04-09T02:19:42;24.48;;;16.05;;
39032;SDS011;24794;51.982;5.878;2023-04-09T02:20:44;25.27;;;16.35;;
39032;SDS011;24794;51.982;5.878;2023-04-09T02:21:45;28.95;;;17.88;;
39032;SDS011;24794;51.982;5.878;2023-04-09T02:22:45;25.77;;;16.42;;
39032;SDS011;24794;51.982;5.878;2023-04-09T02:23:46;23.55;;;15.80;;
39032;SDS011;24794;51.982;5.878;2023-04-09T02:24:46;25.40;;;16.17;;
39032;SDS011;24794;51.982;5.878;2023-04-09T02:25:47;27.92;;;16.65;;
39032;SDS011;24794;51.982;5.878;2023-04-09T02:26:48;27.30;;;16.42;;
39032;SDS011;24794;51.982;5.878;2023-04-09T02:27:49;25.30;;;16.17;;
39032;SDS011;24794;51.982;5.878;2023-04-09T02:28:49;25.20;;;15.85;;
39032;SDS011;24794;51.982;5.878;2023-04-09T02:29:50;27.13;;;16.65;;
39032;SDS011;24794;51.982;5.878;2023-04-09T02:30:51;25.80;;;17.15;;
39032;SDS011;24794;51.982;5.878;2023-04-09T02:31:51;26.02;;;16.35;;
39032;SDS011;24794;51.982;5.878;2023-04-09T02:32:52;23.52;;;15.35;;
39032;SDS011;24794;51.982;5.878;2023-04-09T02:33:52;28.15;;;17.15;;
39032;SDS011;24794;51.982;5.878;2023-04-09T02:34:53;25.58;;;16.27;;
39032;SDS011;24794;51.982;5.878;2023-04-09T02:35:54;27.00;;;17.27;;
39032;SDS011;24794;51.982;5.878;2023-04-09T02:36:54;26.25;;;17.20;;
39032;SDS011;24794;51.982;5.878;2023-04-09T02:37:55;26.25;;;16.98;;
39032;SDS011;24794;51.982;5.878;2023-04-09T02:38:55;26.83;;;16.85;;
39032;SDS011;24794;51.982;5.878;2023-04-09T02:39:56;25.80;;;16.45;;
39032;SDS011;24794;51.982;5.878;2023-04-09T02:40:56;25.10;;;17.00;;
39032;SDS011;24794;51.982;5.878;2023-04-09T02:41:57;29.25;;;18.33;;
39032;SDS011;24794;51.982;5.878;2023-04-09T02:42:57;22.58;;;15.43;;
39032;SDS011;24794;51.982;5.878;2023-04-09T02:43:58;27.00;;;17.38;;
39032;SDS011;24794;51.982;5.878;2023-04-09T02:44:58;28.10;;;17.83;;
39032;SDS011;24794;51.982;5.878;2023-04-09T02:45:59;27.23;;;16.92;;
39032;SDS011;24794;51.982;5.878;2023-04-09T02:47:00;27.17;;;16.63;;
39032;SDS011;24794;51.982;5.878;2023-04-09T02:48:00;25.00;;;16.27;;
39032;SDS011;24794;51.982;5.878;2023-04-09T02:49:01;28.15;;;18.65;;
39032;SDS011;24794;51.982;5.878;2023-04-09T02:50:01;30.48;;;18.90;;
39032;SDS011;24794;51.982;5.878;2023-04-09T02:51:05;29.65;;;17.98;;
39032;SDS011;24794;51.982;5.878;2023-04-09T02:52:08;26.45;;;17.08;;
39032;SDS011;24794;51.982;5.878;2023-04-09T02:53:09;27.05;;;16.60;;
39032;SDS011;24794;51.982;5.878;2023-04-09T02:54:09;24.42;;;16.38;;
39032;SDS011;24794;51.982;5.878;2023-04-09T02:55:10;25.42;;;15.90;;
39032;SDS011;24794;51.982;5.878;2023-04-09T02:56:11;23.27;;;14.65;;
39032;SDS011;24794;51.982;5.878;2023-04-09T02:57:12;25.35;;;15.93;;
39032;SDS011;24794;51.982;5.878;2023-04-09T02:58:12;23.90;;;16.13;;
39032;SDS011;24794;51.982;5.878;2023-04-09T02:59:13;22.85;;;15.55;;
39032;SDS011;24794;51.982;5.878;2023-04-09T03:00:13;23.60;;;14.85;;
39032;SDS011;24794;51.982;5.878;2023-04-09T03:01:14;25.30;;;15.20;;
39032;SDS011;24794;51.982;5.878;2023-04-09T03:02:14;22.67;;;15.20;;
39032;SDS011;24794;51.982;5.878;2023-04-09T03:03:15;23.75;;;15.25;;
39032;SDS011;24794;51.982;5.878;2023-04-09T03:04:15;22.05;;;15.02;;
39032;SDS011;24794;51.982;5.878;2023-04-09T03:05:16;23.45;;;15.63;;
39032;SDS011;24794;51.982;5.878;2023-04-09T03:06:16;25.23;;;15.82;;
39032;SDS011;24794;51.982;5.878;2023-04-09T03:07:17;22.52;;;14.85;;
39032;SDS011;24794;51.982;5.878;2023-04-09T03:08:18;24.83;;;15.93;;
39032;SDS011;24794;51.982;5.878;2023-04-09T03:09:18;23.15;;;15.00;;
39032;SDS011;24794;51.982;5.878;2023-04-09T03:10:19;22.33;;;15.05;;
39032;SDS011;24794;51.982;5.878;2023-04-09T03:11:19;23.52;;;14.63;;
39032;SDS011;24794;51.982;5.878;2023-04-09T03:12:20;24.73;;;15.75;;
39032;SDS011;24794;51.982;5.878;2023-04-09T03:13:21;23.90;;;16.15;;
39032;SDS011;24794;51.982;5.878;2023-04-09T03:14:22;22.80;;;15.43;;
39032;SDS011;24794;51.982;5.878;2023-04-09T03:15:23;23.88;;;14.93;;
39032;SDS011;24794;51.982;5.878;2023-04-09T03:16:24;24.08;;;14.60;;
39032;SDS011;24794;51.982;5.878;2023-04-09T03:17:25;27.38;;;16.00;;
39032;SDS011;24794;51.982;5.878;2023-04-09T03:18:26;26.33;;;16.00;;
39032;SDS011;24794;51.982;5.878;2023-04-09T03:19:26;24.75;;;15.73;;
39032;SDS011;24794;51.982;5.878;2023-04-09T03:20:27;24.08;;;15.48;;
39032;SDS011;24794;51.982;5.878;2023-04-09T03:21:27;27.70;;;17.38;;
39032;SDS011;24794;51.982;5.878;2023-04-09T03:22:28;22.77;;;15.23;;
39032;SDS011;24794;51.982;5.878;2023-04-09T03:23:28;25.98;;;16.88;;
39032;SDS011;24794;51.982;5.878;2023-04-09T03:24:33;25.13;;;16.25;;
39032;SDS011;24794;51.982;5.878;2023-04-09T03:25:34;24.27;;;16.27;;
39032;SDS011;24794;51.982;5.878;2023-04-09T03:26:34;24.75;;;16.02;;
39032;SDS011;24794;51.982;5.878;2023-04-09T03:27:35;27.08;;;17.80;;
39032;SDS011;24794;51.982;5.878;2023-04-09T03:28:35;28.15;;;17.85;;
39032;SDS011;24794;51.982;5.878;2023-04-09T03:29:36;27.65;;;16.58;;
39032;SDS011;24794;51.982;5.878;2023-04-09T03:30:36;28.02;;;17.80;;
39032;SDS011;24794;51.982;5.878;2023-04-09T03:31:37;27.10;;;17.27;;
39032;SDS011;24794;51.982;5.878;2023-04-09T03:32:38;27.80;;;16.95;;
39032;SDS011;24794;51.982;5.878;2023-04-09T03:33:38;25.23;;;16.95;;
39032;SDS011;24794;51.982;5.878;2023-04-09T03:34:39;26.63;;;17.63;;
39032;SDS011;24794;51.982;5.878;2023-04-09T03:35:39;24.90;;;16.45;;
39032;SDS011;24794;51.982;5.878;2023-04-09T03:36:40;27.67;;;17.50;;
39032;SDS011;24794;51.982;5.878;2023-04-09T03:37:40;30.65;;;19.92;;
39032;SDS011;24794;51.982;5.878;2023-04-09T03:38:41;30.10;;;18.95;;
39032;SDS011;24794;51.982;5.878;2023-04-09T03:39:41;32.60;;;18.80;;
39032;SDS011;24794;51.982;5.878;2023-04-09T03:40:42;31.38;;;19.10;;
39032;SDS011;24794;51.982;5.878;2023-04-09T03:41:42;31.30;;;19.33;;
39032;SDS011;24794;51.982;5.878;2023-04-09T03:42:43;32.05;;;19.58;;
39032;SDS011;24794;51.982;5.878;2023-04-09T03:43:44;32.53;;;20.17;;
39032;SDS011;24794;51.982;5.878;2023-04-09T03:44:44;32.08;;;19.50;;
39032;SDS011;24794;51.982;5.878;2023-04-09T03:45:45;33.25;;;20.42;;
39032;SDS011;24794;51.982;5.878;2023-04-09T03:46:45;33.22;;;21.15;;
39032;SDS011;24794;51.982;5.878;2023-04-09T03:47:46;32.30;;;20.15;;
39032;SDS011;24794;51.982;5.878;2023-04-09T03:48:46;30.85;;;19.90;;
39032;SDS011;24794;51.982;5.878;2023-04-09T03:49:47;28.88;;;18.05;;
39032;SDS011;24794;51.982;5.878;2023-04-09T03:50:47;27.80;;;17.45;;
39032;SDS011;24794;51.982;5.878;2023-04-09T03:51:48;29.08;;;18.30;;
39032;SDS011;24794;51.982;5.878;2023-04-09T03:52:48;27.30;;;17.63;;
39032;SDS011;24794;51.982;5.878;2023-04-09T03:53:49;26.00;;;16.80;;
39032;SDS011;24794;51.982;5.878;2023-04-09T03:54:50;28.40;;;17.88;;
39032;SDS011;24794;51.982;5.878;2023-04-09T03:55:50;27.02;;;17.88;;
39032;SDS011;24794;51.982;5.878;2023-04-09T03:56:51;26.25;;;16.75;;
39032;SDS011;24794;51.982;5.878;2023-04-09T03:57:51;27.95;;;17.25;;
39032;SDS011;24794;51.982;5.878;2023-04-09T03:58:52;26.83;;;17.13;;
39032;SDS011;24794;51.982;5.878;2023-04-09T03:59:52;28.17;;;17.42;;
39032;SDS011;24794;51.982;5.878;2023-04-09T04:00:53;25.70;;;16.55;;
39032;SDS011;24794;51.982;5.878;2023-04-09T04:01:53;26.42;;;16.85;;
39032;SDS011;24794;51.982;5.878;2023-04-09T04:02:54;26.27;;;16.48;;
39032;SDS011;24794;51.982;5.878;2023-04-09T04:03:55;25.35;;;16.17;;
39032;SDS011;24794;51.982;5.878;2023-04-09T04:04:55;27.40;;;17.02;;
39032;SDS011;24794;51.982;5.878;2023-04-09T04:05:59;26.20;;;16.92;;
39032;SDS011;24794;51.982;5.878;2023-04-09T04:07:01;22.88;;;15.75;;
39032;SDS011;24794;51.982;5.878;2023-04-09T04:08:02;24.55;;;16.25;;
39032;SDS011;24794;51.982;5.878;2023-04-09T04:09:03;23.88;;;15.13;;
39032;SDS011;24794;51.982;5.878;2023-04-09T04:10:04;25.05;;;15.55;;
39032;SDS011;24794;51.982;5.878;2023-04-09T04:11:06;27.58;;;16.63;;
39032;SDS011;24794;51.982;5.878;2023-04-09T04:12:06;23.88;;;15.35;;
39032;SDS011;24794;51.982;5.878;2023-04-09T04:13:07;26.70;;;17.52;;
39032;SDS011;24794;51.982;5.878;2023-04-09T04:14:07;27.92;;;17.90;;
39032;SDS011;24794;51.982;5.878;2023-04-09T04:15:08;26.88;;;17.58;;
39032;SDS011;24794;51.982;5.878;2023-04-09T04:16:09;26.90;;;17.52;;
39032;SDS011;24794;51.982;5.878;2023-04-09T04:17:09;27.67;;;17.83;;
39032;SDS011;24794;51.982;5.878;2023-04-09T04:18:10;24.20;;;15.88;;
39032;SDS011;24794;51.982;5.878;2023-04-09T04:19:11;26.08;;;16.77;;
39032;SDS011;24794;51.982;5.878;2023-04-09T04:20:11;26.35;;;16.83;;
39032;SDS011;24794;51.982;5.878;2023-04-09T04:21:12;28.25;;;17.70;;
39032;SDS011;24794;51.982;5.878;2023-04-09T04:22:13;27.90;;;17.98;;
39032;SDS011;24794;51.982;5.878;2023-04-09T04:23:14;30.15;;;18.88;;
39032;SDS011;24794;51.982;5.878;2023-04-09T04:24:15;30.27;;;17.95;;
39032;SDS011;24794;51.982;5.878;2023-04-09T04:25:15;27.83;;;17.73;;
39032;SDS011;24794;51.982;5.878;2023-04-09T04:26:16;29.70;;;18.35;;
39032;SDS011;24794;51.982;5.878;2023-04-09T04:27:16;27.58;;;17.67;;
39032;SDS011;24794;51.982;5.878;2023-04-09T04:28:17;28.15;;;18.60;;
39032;SDS011;24794;51.982;5.878;2023-04-09T04:29:17;26.23;;;16.90;;
39032;SDS011;24794;51.982;5.878;2023-04-09T04:30:18;24.90;;;16.55;;
39032;SDS011;24794;51.982;5.878;2023-04-09T04:31:19;28.08;;;18.00;;
39032;SDS011;24794;51.982;5.878;2023-04-09T04:32:19;27.20;;;16.88;;
39032;SDS011;24794;51.982;5.878;2023-04-09T04:33:20;26.70;;;16.77;;
39032;SDS011;24794;51.982;5.878;2023-04-09T04:34:20;27.27;;;17.17;;
39032;SDS011;24794;51.982;5.878;2023-04-09T04:35:21;25.40;;;16.55;;
39032;SDS011;24794;51.982;5.878;2023-04-09T04:36:21;29.60;;;18.13;;
39032;SDS011;24794;51.982;5.878;2023-04-09T04:37:22;27.95;;;18.08;;
39032;SDS011;24794;51.982;5.878;2023-04-09T04:38:22;27.98;;;18.27;;
39032;SDS011;24794;51.982;5.878;2023-04-09T04:39:23;28.08;;;17.00;;
39032;SDS011;24794;51.982;5.878;2023-04-09T04:40:23;27.38;;;17.08;;
39032;SDS011;24794;51.982;5.878;2023-04-09T04:41:24;25.92;;;17.05;;
39032;SDS011;24794;51.982;5.878;2023-04-09T04:42:24;27.48;;;18.50;;
39032;SDS011;24794;51.982;5.878;2023-04-09T04:43:25;25.70;;;17.52;;
39032;SDS011;24794;51.982;5.878;2023-04-09T04:44:26;25.92;;;17.27;;
39032;SDS011;24794;51.982;5.878;2023-04-09T04:45:26;26.23;;;16.30;;
39032;SDS011;24794;51.982;5.878;2023-04-09T04:46:27;23.33;;;15.75;;
39032;SDS011;24794;51.982;5.878;2023-04-09T04:47:27;24.58;;;16.23;;
39032;SDS011;24794;51.982;5.878;2023-04-09T04:48:28;23.35;;;15.07;;
39032;SDS011;24794;51.982;5.878;2023-04-09T04:49:29;25.27;;;16.85;;
39032;SDS011;24794;51.982;5.878;2023-04-09T04:50:30;27.65;;;16.88;;
39032;SDS011;24794;51.982;5.878;2023-04-09T04:51:31;26.25;;;16.92;;
39032;SDS011;24794;51.982;5.878;2023-04-09T04:52:32;27.30;;;17.05;;
39032;SDS011;24794;51.982;5.878;2023-04-09T04:53:32;29.08;;;18.27;;
39032;SDS011;24794;51.982;5.878;2023-04-09T04:54:33;27.42;;;16.63;;
39032;SDS011;24794;51.982;5.878;2023-04-09T04:55:36;27.20;;;16.83;;
39032;SDS011;24794;51.982;5.878;2023-04-09T04:56:40;27.38;;;17.13;;
39032;SDS011;24794;51.982;5.878;2023-04-09T04:57:40;26.13;;;15.82;;
39032;SDS011;24794;51.982;5.878;2023-04-09T04:58:42;24.50;;;15.60;;
39032;SDS011;24794;51.982;5.878;2023-04-09T04:59:43;23.60;;;15.07;;
39032;SDS011;24794;51.982;5.878;2023-04-09T05:00:43;25.77;;;16.50;;
39032;SDS011;24794;51.982;5.878;2023-04-09T05:01:44;28.13;;;18.40;;
39032;SDS011;24794;51.982;5.878;2023-04-09T05:02:45;26.23;;;16.48;;
39032;SDS011;24794;51.982;5.878;2023-04-09T05:03:45;27.45;;;17.33;;
39032;SDS011;24794;51.982;5.878;2023-04-09T05:04:46;29.73;;;16.50;;
39032;SDS011;24794;51.982;5.878;2023-04-09T05:05:46;24.90;;;15.77;;
39032;SDS011;24794;51.982;5.878;2023-04-09T05:06:47;25.58;;;15.80;;
39032;SDS011;24794;51.982;5.878;2023-04-09T05:07:47;23.40;;;15.73;;
39032;SDS011;24794;51.982;5.878;2023-04-09T05:08:48;24.95;;;16.17;;
39032;SDS011;24794;51.982;5.878;2023-04-09T05:09:49;26.98;;;16.70;;
39032;SDS011;24794;51.982;5.878;2023-04-09T05:10:49;25.05;;;15.77;;
39032;SDS011;24794;51.982;5.878;2023-04-09T05:11:50;27.15;;;16.98;;
39032;SDS011;24794;51.982;5.878;2023-04-09T05:12:50;27.35;;;17.45;;
39032;SDS011;24794;51.982;5.878;2023-04-09T05:13:51;29.48;;;17.45;;
39032;SDS011;24794;51.982;5.878;2023-04-09T05:14:51;26.40;;;17.17;;
39032;SDS011;24794;51.982;5.878;2023-04-09T05:15:52;23.63;;;16.08;;
39032;SDS011;24794;51.982;5.878;2023-04-09T05:16:52;24.92;;;15.75;;
39032;SDS011;24794;51.982;5.878;2023-04-09T05:17:53;24.50;;;15.57;;
39032;SDS011;24794;51.982;5.878;2023-04-09T05:18:54;24.63;;;15.45;;
39032;SDS011;24794;51.982;5.878;2023-04-09T05:19:54;24.40;;;15.95;;
39032;SDS011;24794;51.982;5.878;2023-04-09T05:20:56;26.65;;;16.17;;
39032;SDS011;24794;51.982;5.878;2023-04-09T05:21:57;24.50;;;15.75;;
39032;SDS011;24794;51.982;5.878;2023-04-09T05:22:57;24.52;;;15.73;;
39032;SDS011;24794;51.982;5.878;2023-04-09T05:23:58;25.02;;;16.05;;
39032;SDS011;24794;51.982;5.878;2023-04-09T05:24:58;21.38;;;14.15;;
39032;SDS011;24794;51.982;5.878;2023-04-09T05:25:59;26.35;;;15.30;;
39032;SDS011;24794;51.982;5.878;2023-04-09T05:27:00;24.73;;;15.65;;
39032;SDS011;24794;51.982;5.878;2023-04-09T05:28:00;23.80;;;15.05;;
39032;SDS011;24794;51.982;5.878;2023-04-09T05:29:01;24.75;;;15.40;;
39032;SDS011;24794;51.982;5.878;2023-04-09T05:30:01;23.25;;;14.55;;
39032;SDS011;24794;51.982;5.878;2023-04-09T05:31:02;26.10;;;15.77;;
39032;SDS011;24794;51.982;5.878;2023-04-09T05:32:03;23.30;;;15.80;;
39032;SDS011;24794;51.982;5.878;2023-04-09T05:33:03;24.67;;;15.20;;
39032;SDS011;24794;51.982;5.878;2023-04-09T05:34:04;23.75;;;15.35;;
39032;SDS011;24794;51.982;5.878;2023-04-09T05:35:05;30.73;;;18.17;;
39032;SDS011;24794;51.982;5.878;2023-04-09T05:36:06;28.02;;;17.63;;
39032;SDS011;24794;51.982;5.878;2023-04-09T05:37:07;29.45;;;18.30;;
39032;SDS011;24794;51.982;5.878;2023-04-09T05:38:07;29.52;;;18.42;;
39032;SDS011;24794;51.982;5.878;2023-04-09T05:39:08;28.00;;;17.55;;
39032;SDS011;24794;51.982;5.878;2023-04-09T05:40:08;27.80;;;17.77;;
39032;SDS011;24794;51.982;5.878;2023-04-09T05:41:09;27.25;;;17.58;;
39032;SDS011;24794;51.982;5.878;2023-04-09T05:42:10;25.95;;;16.23;;
39032;SDS011;24794;51.982;5.878;2023-04-09T05:43:10;27.85;;;17.10;;
39032;SDS011;24794;51.982;5.878;2023-04-09T05:44:11;30.25;;;18.15;;
39032;SDS011;24794;51.982;5.878;2023-04-09T05:45:12;30.13;;;19.38;;
39032;SDS011;24794;51.982;5.878;2023-04-09T05:46:12;28.67;;;16.90;;
39032;SDS011;24794;51.982;5.878;2023-04-09T05:47:13;31.38;;;19.98;;
39032;SDS011;24794;51.982;5.878;2023-04-09T05:48:13;29.45;;;18.35;;
39032;SDS011;24794;51.982;5.878;2023-04-09T05:49:14;30.38;;;18.73;;
39032;SDS011;24794;51.982;5.878;2023-04-09T05:50:15;31.45;;;18.27;;
39032;SDS011;24794;51.982;5.878;2023-04-09T05:51:15;30.45;;;19.65;;
39032;SDS011;24794;51.982;5.878;2023-04-09T05:52:16;27.23;;;18.10;;
39032;SDS011;24794;51.982;5.878;2023-04-09T05:53:20;27.50;;;17.08;;
39032;SDS011;24794;51.982;5.878;2023-04-09T05:54:21;30.33;;;18.10;;
39032;SDS011;24794;51.982;5.878;2023-04-09T05:55:22;30.17;;;18.98;;
39032;SDS011;24794;51.982;5.878;2023-04-09T05:56:22;29.73;;;18.13;;
39032;SDS011;24794;51.982;5.878;2023-04-09T05:57:23;29.15;;;17.83;;
39032;SDS011;24794;51.982;5.878;2023-04-09T05:58:23;29.25;;;16.02;;
39032;SDS011;24794;51.982;5.878;2023-04-09T05:59:24;27.23;;;16.70;;
39032;SDS011;24794;51.982;5.878;2023-04-09T06:00:25;31.83;;;18.60;;
39032;SDS011;24794;51.982;5.878;2023-04-09T06:01:25;28.35;;;17.90;;
39032;SDS011;24794;51.982;5.878;2023-04-09T06:02:26;27.13;;;16.90;;
39032;SDS011;24794;51.982;5.878;2023-04-09T06:03:27;32.00;;;18.65;;
39032;SDS011;24794;51.982;5.878;2023-04-09T06:04:27;29.42;;;18.70;;
39032;SDS011;24794;51.982;5.878;2023-04-09T06:05:28;28.45;;;17.75;;
39032;SDS011;24794;51.982;5.878;2023-04-09T06:06:29;30.55;;;17.80;;
39032;SDS011;24794;51.982;5.878;2023-04-09T06:07:29;37.10;;;20.70;;
39032;SDS011;24794;51.982;5.878;2023-04-09T06:08:30;31.08;;;18.88;;
39032;SDS011;24794;51.982;5.878;2023-04-09T06:09:30;34.03;;;20.30;;
39032;SDS011;24794;51.982;5.878;2023-04-09T06:10:31;31.35;;;19.13;;